createdAt,value
2023-01-11T00:02:07.161Z,2.40
2023-01-11T00:04:34.815Z,3.10
2023-01-11T00:07:02.087Z,2.50
2023-01-11T00:09:29.386Z,3.00
2023-01-11T00:11:56.782Z,2.90
2023-01-11T00:14:24.051Z,3.10
2023-01-11T00:16:51.355Z,2.80
2023-01-11T00:19:18.572Z,2.20
2023-01-11T00:21:45.763Z,2.90
2023-01-11T00:24:13.048Z,2.50
2023-01-11T00:26:40.233Z,2.70
2023-01-11T00:29:07.424Z,2.90
2023-01-11T00:31:34.661Z,2.60
2023-01-11T00:34:01.870Z,2.20
2023-01-11T00:36:29.076Z,2.30
2023-01-11T00:38:56.662Z,2.00
2023-01-11T00:41:42.525Z,2.20
2023-01-11T00:44:29.491Z,2.00
2023-01-11T00:47:15.891Z,2.40
2023-01-11T00:49:44.342Z,2.20
2023-01-11T00:52:11.653Z,2.80
2023-01-11T00:54:40.179Z,2.20
2023-01-11T00:57:08.201Z,2.30
2023-01-11T00:59:37.153Z,2.40
2023-01-11T01:02:04.590Z,1.90
2023-01-11T01:04:32.274Z,2.20
2023-01-11T01:06:59.575Z,1.90
2023-01-11T01:09:26.926Z,2.50
2023-01-11T01:11:54.271Z,2.30
2023-01-11T01:14:31.082Z,2.20
2023-01-11T01:17:09.550Z,2.00
2023-01-11T01:19:39.349Z,2.00
2023-01-11T01:22:06.561Z,2.00
2023-01-11T01:24:34.351Z,2.00
2023-01-11T01:27:01.593Z,2.30
2023-01-11T01:29:28.902Z,2.20
2023-01-11T01:31:56.199Z,2.00
2023-01-11T01:34:23.512Z,2.00
2023-01-11T01:36:50.667Z,2.10
2023-01-11T01:39:17.937Z,2.30
2023-01-11T01:41:45.314Z,1.80
2023-01-11T01:44:50.286Z,2.10
2023-01-11T01:47:18.453Z,2.10
2023-01-11T01:49:46.865Z,1.60
2023-01-11T01:52:14.164Z,2.20
2023-01-11T01:54:44.859Z,1.90
2023-01-11T01:57:17.763Z,1.60
2023-01-11T01:59:46.001Z,2.10
2023-01-11T02:02:13.261Z,1.60
2023-01-11T02:04:42.670Z,1.10
2023-01-11T02:07:16.453Z,1.70
2023-01-11T02:09:56.417Z,2.40
2023-01-11T02:45:32.121Z,1.10
2023-01-11T02:48:15.555Z,1.60
2023-01-11T02:50:42.887Z,1.50
2023-01-11T02:53:30.237Z,1.40
2023-01-11T02:56:00.064Z,1.10
2023-01-11T02:58:30.565Z,1.40
2023-01-11T03:00:58.694Z,1.40
2023-01-11T03:03:29.915Z,1.20
2023-01-11T03:06:13.944Z,1.10
2023-01-11T03:08:48.989Z,1.40
2023-01-11T03:11:56.550Z,1.50
2023-01-11T03:14:34.486Z,0.90
2023-01-11T03:17:04.331Z,1.20
2023-01-11T03:19:37.461Z,1.20
2023-01-11T03:22:16.048Z,0.80
2023-01-11T03:24:48.900Z,1.10
2023-01-11T03:27:36.087Z,1.20
2023-01-11T03:30:19.511Z,0.70
2023-01-11T03:33:01.226Z,0.80
2023-01-11T03:35:34.295Z,1.30
2023-01-11T03:38:33.180Z,0.80
2023-01-11T03:41:24.641Z,1.10
2023-01-11T03:43:54.517Z,0.80
2023-01-11T03:46:29.624Z,0.90
2023-01-11T03:49:10.751Z,1.00
2023-01-11T03:51:43.618Z,0.60
2023-01-11T03:54:15.972Z,1.10
2023-01-11T03:56:54.752Z,1.10
2023-01-11T03:59:22.059Z,1.20
2023-01-11T04:01:49.365Z,0.90
2023-01-11T04:04:16.600Z,1.90
2023-01-11T04:06:43.777Z,0.90
2023-01-11T04:09:11.044Z,1.20
2023-01-11T04:11:38.162Z,0.90
2023-01-11T04:14:05.435Z,0.70
2023-01-11T04:16:32.875Z,0.60
2023-01-11T04:19:00.107Z,1.10
2023-01-11T04:21:27.371Z,0.70
2023-01-11T04:23:54.986Z,1.10
2023-01-11T04:26:22.251Z,1.60
2023-01-11T04:28:49.343Z,1.20
2023-01-11T04:31:16.579Z,1.30
2023-01-11T04:33:43.707Z,0.60
2023-01-11T04:36:11.707Z,0.70
2023-01-11T04:38:39.014Z,1.30
2023-01-11T04:41:24.818Z,0.90
2023-01-11T04:43:55.770Z,0.90
2023-01-11T04:46:26.203Z,0.80
2023-01-11T04:48:53.449Z,0.90
2023-01-11T04:51:20.628Z,0.80
2023-01-11T04:53:49.307Z,0.80
2023-01-11T04:56:16.991Z,0.70
2023-01-11T04:58:44.645Z,1.30
2023-01-11T05:01:16.990Z,1.40
2023-01-11T05:03:45.508Z,0.50
2023-01-11T05:06:14.281Z,1.10
2023-01-11T05:08:46.306Z,0.70
2023-01-11T05:11:14.080Z,0.80
2023-01-11T05:13:44.340Z,1.30
2023-01-11T05:16:13.845Z,0.90
2023-01-11T05:18:47.231Z,1.10
2023-01-11T05:21:17.048Z,1.20
2023-01-11T05:23:45.193Z,1.10
2023-01-11T05:26:18.949Z,1.60
2023-01-11T05:28:47.120Z,1.20
2023-01-11T05:31:14.444Z,0.70
2023-01-11T05:33:41.765Z,0.90
2023-01-11T05:36:13.592Z,0.90
2023-01-11T05:38:41.057Z,0.90
2023-01-11T05:41:09.944Z,1.50
2023-01-11T05:43:57.727Z,1.20
2023-01-11T05:46:26.522Z,1.30
2023-01-11T05:48:56.936Z,1.20
2023-01-11T05:51:24.324Z,0.80
2023-01-11T05:53:53.087Z,1.10
2023-01-11T05:56:20.350Z,1.30
2023-01-11T05:58:48.980Z,1.80
2023-01-11T06:01:17.198Z,1.40
2023-01-11T06:03:45.391Z,1.40
2023-01-11T06:06:13.648Z,1.40
2023-01-11T06:08:40.820Z,1.00
2023-01-11T06:11:08.393Z,1.30
2023-01-11T06:13:36.453Z,1.20
2023-01-11T06:16:09.858Z,1.80
2023-01-11T06:18:43.036Z,1.10
2023-01-11T06:21:11.143Z,1.10
2023-01-11T06:23:42.153Z,0.90
2023-01-11T06:26:12.581Z,1.40
2023-01-11T06:28:40.454Z,1.80
2023-01-11T06:31:08.689Z,1.20
2023-01-11T06:33:36.803Z,1.20
2023-01-11T06:36:09.893Z,1.30
2023-01-11T06:38:38.055Z,1.80
2023-01-11T06:41:08.500Z,1.70
2023-01-11T06:43:37.992Z,1.70
2023-01-11T06:46:05.769Z,1.40
2023-01-11T06:48:34.169Z,1.90
2023-01-11T06:51:01.455Z,1.80
2023-01-11T06:53:29.443Z,2.00
2023-01-11T06:55:58.551Z,1.40
2023-01-11T06:58:26.958Z,1.30
2023-01-11T07:00:57.217Z,1.80
2023-01-11T07:03:25.944Z,2.20
2023-01-11T07:05:56.911Z,1.60
2023-01-11T07:08:26.023Z,1.30
2023-01-11T07:10:54.105Z,2.20
2023-01-11T07:13:22.146Z,1.80
2023-01-11T07:15:51.240Z,1.80
2023-01-11T07:18:19.576Z,1.70
2023-01-11T07:20:47.382Z,2.10
2023-01-11T07:23:14.734Z,1.90
2023-01-11T07:25:42.048Z,2.40
2023-01-11T07:28:09.757Z,1.90
2023-01-11T07:30:59.211Z,2.10
2023-01-11T07:33:27.810Z,2.00
2023-01-11T07:35:55.512Z,1.80
2023-01-11T07:38:23.214Z,2.20
2023-01-11T07:40:50.675Z,2.40
2023-01-11T07:43:23.467Z,2.10
2023-01-11T07:45:53.136Z,2.50
2023-01-11T07:48:27.224Z,1.40
2023-01-11T07:50:55.585Z,1.90
2023-01-11T07:53:25.809Z,2.10
2023-01-11T07:55:55.642Z,2.20
2023-01-11T07:58:23.333Z,1.70
2023-01-11T08:00:50.746Z,1.80
2023-01-11T08:03:18.058Z,1.80
2023-01-11T08:05:50.609Z,2.40
2023-01-11T08:08:17.814Z,1.40
2023-01-11T08:10:44.965Z,1.90
2023-01-11T08:13:32.155Z,2.00
2023-01-11T08:16:00.132Z,2.30
2023-01-11T08:18:27.488Z,2.20
2023-01-11T08:20:55.306Z,2.00
2023-01-11T08:23:22.604Z,1.80
2023-01-11T08:25:49.938Z,2.30
2023-01-11T08:28:17.195Z,2.00
2023-01-11T08:30:45.002Z,1.70
2023-01-11T08:33:12.261Z,2.10
2023-01-11T08:35:40.107Z,2.30
2023-01-11T08:38:08.380Z,2.10
2023-01-11T08:40:36.509Z,1.80
2023-01-11T08:43:03.816Z,1.90
2023-01-11T08:45:31.167Z,1.90
2023-01-11T08:47:59.480Z,1.80
2023-01-11T08:50:26.664Z,1.90
2023-01-11T08:52:53.857Z,1.70
2023-01-11T08:55:20.988Z,1.40
2023-01-11T08:57:48.591Z,1.90
2023-01-11T09:00:16.241Z,1.50
2023-01-11T09:02:45.556Z,1.10
2023-01-11T09:05:13.021Z,2.30
2023-01-11T09:07:40.191Z,2.40
2023-01-11T09:10:07.720Z,2.50
2023-01-11T09:12:35.420Z,2.70
2023-01-11T09:15:06.097Z,2.60
2023-01-11T09:17:33.914Z,2.50
2023-01-11T09:20:01.364Z,2.30
2023-01-11T09:22:28.595Z,2.60
2023-01-11T09:24:59.651Z,2.60
2023-01-11T09:27:26.831Z,2.40
2023-01-11T09:29:54.083Z,2.30
2023-01-11T09:32:21.400Z,4.30
2023-01-11T09:34:49.868Z,2.60
2023-01-11T09:37:17.640Z,2.20
2023-01-11T09:39:44.951Z,1.70
2023-01-11T09:42:39.668Z,1.90
2023-01-11T09:45:18.695Z,1.70
2023-01-11T09:47:56.776Z,1.80
2023-01-11T09:50:28.627Z,1.20
2023-01-11T09:53:04.819Z,1.20
2023-01-11T09:55:45.013Z,1.40
2023-01-11T09:58:32.899Z,1.50
2023-01-11T10:01:12.845Z,1.30
2023-01-11T10:03:52.945Z,1.50
2023-01-11T10:06:32.962Z,1.30
2023-01-11T10:18:29.210Z,1.10
2023-01-11T10:19:03.705Z,1.20
2023-01-11T10:21:42.786Z,1.30
2023-01-11T10:24:45.573Z,1.50
2023-01-11T10:27:22.058Z,1.40
2023-01-11T10:30:13.708Z,1.20
2023-01-11T10:32:54.408Z,1.20
2023-01-11T10:36:10.816Z,1.10
2023-01-11T10:39:13.361Z,1.50
2023-01-11T10:42:05.059Z,1.10
2023-01-11T10:44:43.931Z,1.80
2023-01-11T10:47:17.804Z,1.70
2023-01-11T10:50:04.224Z,1.90
2023-01-11T10:53:01.570Z,1.80
2023-01-11T10:55:28.888Z,1.50
2023-01-11T10:58:02.761Z,1.60
2023-01-11T11:00:36.767Z,1.60
2023-01-11T11:03:09.941Z,1.60
2023-01-11T11:05:52.306Z,1.50
2023-01-11T11:08:42.529Z,1.60
2023-01-11T11:11:17.156Z,1.80
2023-01-11T11:14:08.218Z,1.70
2023-01-11T11:16:44.190Z,1.60
2023-01-11T11:19:16.629Z,1.90
2023-01-11T11:21:44.075Z,1.90
2023-01-11T11:24:23.287Z,2.00
2023-01-11T11:27:09.287Z,1.80
2023-01-11T11:29:51.866Z,1.50
2023-01-11T11:32:26.456Z,1.30
2023-01-11T11:34:54.320Z,1.90
2023-01-11T11:37:28.191Z,1.40
2023-01-11T11:39:56.285Z,1.60
2023-01-11T11:42:24.640Z,2.00
2023-01-11T11:45:10.103Z,1.90
2023-01-11T11:47:38.914Z,2.40
2023-01-11T11:50:43.303Z,2.20
2023-01-11T11:53:27.403Z,2.50
2023-01-11T11:55:55.107Z,2.20
2023-01-11T11:58:25.228Z,2.10
2023-01-11T12:00:53.351Z,2.40
2023-01-11T12:03:29.346Z,2.00
2023-01-11T12:06:05.390Z,2.20
2023-01-11T12:08:35.022Z,2.30
2023-01-11T12:11:06.272Z,2.10
2023-01-11T12:13:35.189Z,2.00
2023-01-11T12:16:05.123Z,1.80
2023-01-11T12:18:41.583Z,1.70
2023-01-11T12:21:19.078Z,2.70
2023-01-11T12:23:49.353Z,2.80
2023-01-11T12:26:19.125Z,2.20
2023-01-11T12:29:11.423Z,3.30
2023-01-11T12:32:12.144Z,2.00
2023-01-11T12:35:05.889Z,2.60
2023-01-11T12:37:39.099Z,2.50
2023-01-11T12:40:09.545Z,2.80
2023-01-11T12:43:05.918Z,2.30
2023-01-11T12:45:50.398Z,2.70
2023-01-11T12:48:49.932Z,2.80
2023-01-11T12:51:39.208Z,2.70
2023-01-11T12:54:31.095Z,2.20
2023-01-11T12:57:11.580Z,2.30
2023-01-11T13:00:09.299Z,2.70
2023-01-11T13:03:11.706Z,2.40
2023-01-11T13:06:08.134Z,2.00
2023-01-11T13:09:10.488Z,1.90
2023-01-11T13:12:08.651Z,2.00
2023-01-11T13:14:59.093Z,1.80
2023-01-11T13:17:41.421Z,1.80
2023-01-11T13:20:34.283Z,1.90
2023-01-11T13:23:33.272Z,2.80
2023-01-11T13:26:25.387Z,1.30
2023-01-11T13:29:04.423Z,2.30
2023-01-11T13:31:35.891Z,2.10
2023-01-11T13:34:17.577Z,2.40
2023-01-11T13:36:51.806Z,1.90
2023-01-11T13:39:23.313Z,1.50
2023-01-11T13:41:57.763Z,2.00
2023-01-11T13:44:30.599Z,1.50
2023-01-11T13:47:07.940Z,1.90
2023-01-11T13:49:53.891Z,2.20
2023-01-11T13:53:15.959Z,1.60
2023-01-11T13:56:16.108Z,1.50
2023-01-11T13:58:56.302Z,2.00
2023-01-11T14:01:48.614Z,1.90
2023-01-11T14:04:23.071Z,1.90
2023-01-11T14:07:11.602Z,1.60
2023-01-11T14:10:00.349Z,1.50
2023-01-11T14:12:42.568Z,1.80
2023-01-11T14:15:27.785Z,2.00
2023-01-11T14:18:19.196Z,1.70
2023-01-11T14:21:03.303Z,1.60
2023-01-11T14:23:54.943Z,2.10
2023-01-11T14:26:47.419Z,2.10
2023-01-11T14:29:48.911Z,2.20
2023-01-11T14:32:31.385Z,2.10
2023-01-11T14:35:32.920Z,2.10
2023-01-11T14:38:25.074Z,1.90
2023-01-11T14:41:17.950Z,2.30
2023-01-11T14:44:00.756Z,2.10
2023-01-11T14:46:37.105Z,2.10
2023-01-11T14:49:31.771Z,1.80
2023-01-11T14:52:09.099Z,1.80
2023-01-11T14:54:44.854Z,1.80
2023-01-11T14:57:51.273Z,2.00
2023-01-11T15:00:18.689Z,1.40
2023-01-11T15:03:07.263Z,1.70
2023-01-11T15:05:38.911Z,1.70
2023-01-11T15:08:15.169Z,1.60
2023-01-11T15:11:06.390Z,2.10
2023-01-11T15:13:57.435Z,1.90
2023-01-11T15:16:49.104Z,1.90
2023-01-11T15:19:34.583Z,1.70
2023-01-11T15:22:04.393Z,1.40
2023-01-11T15:24:43.257Z,1.60
2023-01-11T15:27:25.177Z,2.00
2023-01-11T15:29:57.290Z,1.80
2023-01-11T15:32:28.880Z,1.60
2023-01-11T15:35:24.889Z,1.60
2023-01-11T15:38:09.135Z,0.90
2023-01-11T15:40:42.440Z,1.30
2023-01-11T15:43:36.904Z,1.40
2023-01-11T15:46:44.554Z,0.90
2023-01-11T15:49:18.012Z,1.30
2023-01-11T15:52:19.394Z,1.30
2023-01-11T15:55:25.906Z,0.90
2023-01-11T15:58:28.372Z,1.10
2023-01-11T16:01:32.381Z,0.90
2023-01-11T16:04:28.700Z,1.00
2023-01-11T16:07:02.260Z,0.80
2023-01-11T16:09:53.515Z,1.10
2023-01-11T16:12:44.013Z,0.40
2023-01-11T16:15:20.409Z,0.70
2023-01-11T16:17:49.901Z,0.50
2023-01-11T16:20:20.299Z,1.30
2023-01-11T16:22:57.525Z,0.70
2023-01-11T16:25:30.395Z,0.50
2023-01-11T16:27:59.646Z,0.40
2023-01-11T16:30:28.607Z,4.80
2023-01-11T16:33:24.869Z,0.70
2023-01-11T16:36:15.263Z,0.60
2023-01-11T16:38:54.480Z,1.20
2023-01-11T16:41:23.817Z,1.90
2023-01-11T16:44:02.179Z,1.30
2023-01-11T16:46:48.211Z,17.30
2023-01-11T16:49:18.311Z,31.80
2023-01-11T16:51:46.328Z,3.20
2023-01-11T16:54:26.544Z,4.00
2023-01-11T16:56:54.840Z,2.30
2023-01-11T16:59:30.849Z,2.00
2023-01-11T17:02:06.016Z,3.30
2023-01-11T17:04:51.522Z,4.50
2023-01-11T17:07:25.625Z,24.40
2023-01-11T17:09:53.919Z,7.20
2023-01-11T17:12:24.604Z,26.90
2023-01-11T17:15:00.720Z,20.10
2023-01-11T17:17:29.474Z,23.70
2023-01-11T17:19:59.272Z,16.10
2023-01-11T17:22:29.779Z,20.20
2023-01-11T17:25:00.340Z,28.60
2023-01-11T17:27:30.744Z,8.30
2023-01-11T17:29:58.849Z,13.50
2023-01-11T17:32:38.527Z,15.00
2023-01-11T17:35:15.158Z,32.50
2023-01-11T17:37:45.320Z,24.00
2023-01-11T17:40:33.679Z,27.60
2023-01-11T17:43:30.306Z,19.70
2023-01-11T17:45:58.961Z,12.60
2023-01-11T17:48:27.600Z,12.10
2023-01-11T17:50:58.311Z,14.50
2023-01-11T17:53:32.735Z,5.30
2023-01-11T17:56:01.089Z,6.80
2023-01-11T17:58:30.456Z,10.40
2023-01-11T18:01:15.844Z,20.00
2023-01-11T18:03:57.279Z,11.20
2023-01-11T18:06:29.907Z,10.00
2023-01-11T18:08:58.160Z,3.80
2023-01-11T18:11:31.995Z,7.90
2023-01-11T18:14:02.603Z,19.50
2023-01-11T18:16:30.099Z,24.90
2023-01-11T18:18:57.917Z,19.20
2023-01-11T18:21:40.136Z,23.70
2023-01-11T18:24:14.424Z,23.80
2023-01-11T18:26:43.533Z,8.50
2023-01-11T18:29:42.457Z,17.80
2023-01-11T18:32:15.161Z,11.40
2023-01-11T18:34:46.064Z,14.10
2023-01-11T18:37:13.819Z,5.00
2023-01-11T18:39:42.890Z,4.20
2023-01-11T18:42:16.233Z,2.10
2023-01-11T18:44:47.659Z,8.00
2023-01-11T18:47:17.887Z,3.10
2023-01-11T18:49:45.355Z,4.00
2023-01-11T18:52:13.141Z,5.10
2023-01-11T18:54:41.106Z,4.50
2023-01-11T18:57:08.794Z,3.80
2023-01-11T18:59:36.338Z,2.70
2023-01-11T19:04:55.483Z,3.00
2023-01-11T19:07:24.605Z,8.90
2023-01-11T19:09:52.344Z,11.40
2023-01-11T19:12:19.818Z,10.30
2023-01-11T19:14:49.771Z,15.70
2023-01-11T19:17:17.401Z,13.50
2023-01-11T19:19:44.856Z,8.60
2023-01-11T19:22:12.816Z,14.40
2023-01-11T19:24:40.530Z,21.00
2023-01-11T19:27:07.892Z,21.80
2023-01-11T19:29:35.320Z,6.20
2023-01-11T19:32:02.873Z,11.90
2023-01-11T19:34:32.454Z,5.50
2023-01-11T19:37:00.116Z,10.80
2023-01-11T19:39:27.598Z,22.90
2023-01-11T19:41:55.366Z,13.00
2023-01-11T19:44:24.450Z,13.70
2023-01-11T19:46:57.086Z,9.80
2023-01-11T19:49:37.258Z,25.80
2023-01-11T19:52:05.008Z,8.40
2023-01-11T19:54:32.270Z,10.30
2023-01-11T19:56:59.536Z,14.70
2023-01-11T19:59:26.861Z,16.90
2023-01-11T20:01:54.258Z,7.60
2023-01-11T20:04:21.506Z,22.60
2023-01-11T20:06:52.922Z,10.50
2023-01-11T20:09:21.944Z,12.30
2023-01-11T20:11:49.939Z,12.60
2023-01-11T20:14:17.510Z,10.50
2023-01-11T20:16:44.843Z,9.20
2023-01-11T20:19:12.477Z,6.60
2023-01-11T20:21:40.062Z,12.50
2023-01-11T20:24:07.599Z,18.60
2023-01-11T20:26:34.877Z,13.10
2023-01-11T20:29:02.342Z,11.40
2023-01-11T20:31:32.532Z,11.50
2023-01-11T20:34:01.897Z,9.40
2023-01-11T20:36:30.095Z,14.40
2023-01-11T20:38:58.036Z,10.40
2023-01-11T20:41:45.178Z,14.10
2023-01-11T20:44:24.675Z,14.10
2023-01-11T20:46:53.365Z,18.20
2023-01-11T20:49:23.848Z,34.30
2023-01-11T20:51:51.410Z,40.90
2023-01-11T20:54:19.166Z,53.30
2023-01-11T20:56:47.347Z,42.60
2023-01-11T20:59:19.232Z,10.40
2023-01-11T21:01:47.944Z,14.80
2023-01-11T21:04:16.483Z,11.90
2023-01-11T21:06:45.840Z,8.70
2023-01-11T21:09:15.934Z,9.50
2023-01-11T21:11:44.680Z,18.80
2023-01-11T21:14:12.369Z,16.70
2023-01-11T21:16:44.434Z,10.20
2023-01-11T21:19:13.378Z,9.10
2023-01-11T21:21:41.295Z,15.10
2023-01-11T21:24:12.611Z,10.30
2023-01-11T21:26:42.226Z,14.60
2023-01-11T21:29:11.748Z,15.10
2023-01-11T21:31:40.523Z,56.50
2023-01-11T21:34:10.033Z,23.20
2023-01-11T21:36:37.329Z,38.80
2023-01-11T21:39:05.136Z,23.20
2023-01-11T21:41:52.376Z,19.50
2023-01-11T21:44:20.995Z,22.60
2023-01-11T21:46:49.322Z,13.40
2023-01-11T21:49:17.226Z,19.50
2023-01-11T21:51:44.789Z,10.80
2023-01-11T21:54:14.695Z,17.90
2023-01-11T21:56:42.136Z,10.10
2023-01-11T21:59:10.052Z,11.20
2023-01-11T22:01:38.993Z,16.70
2023-01-11T22:04:07.586Z,7.80
2023-01-11T22:06:39.828Z,6.90
2023-01-11T22:09:13.916Z,7.50
2023-01-11T22:11:41.748Z,8.20
2023-01-11T22:14:12.663Z,10.30
2023-01-11T22:16:41.968Z,8.40
2023-01-11T22:19:23.797Z,9.50
2023-01-11T22:21:54.341Z,4.80
2023-01-11T22:24:21.765Z,10.20
2023-01-11T22:26:49.153Z,13.00
2023-01-11T22:29:16.469Z,5.70
2023-01-11T22:31:47.667Z,4.70
2023-01-11T22:34:15.724Z,5.90
2023-01-11T22:36:44.078Z,5.80
2023-01-11T22:39:13.035Z,5.00
2023-01-11T22:41:40.732Z,4.90
2023-01-11T22:44:09.518Z,4.70
2023-01-11T22:46:37.195Z,4.50
2023-01-11T22:49:06.387Z,5.20
2023-01-11T22:51:34.278Z,5.20
2023-01-11T22:54:01.592Z,4.40
2023-01-11T22:56:29.891Z,4.70
2023-01-11T22:58:58.401Z,4.20
2023-01-11T23:01:36.890Z,5.50
2023-01-11T23:04:05.694Z,4.90
2023-01-11T23:06:37.038Z,4.90
2023-01-11T23:09:07.408Z,4.40
2023-01-11T23:11:56.047Z,4.80
2023-01-11T23:14:28.968Z,4.50
2023-01-11T23:17:00.350Z,4.60
2023-01-11T23:19:27.642Z,3.90
2023-01-11T23:21:55.035Z,4.10
2023-01-11T23:24:22.344Z,4.10
2023-01-11T23:26:50.170Z,3.80
2023-01-11T23:29:17.676Z,3.90
2023-01-11T23:31:45.175Z,4.30
2023-01-11T23:34:12.954Z,3.70
2023-01-11T23:36:42.306Z,4.10
2023-01-11T23:39:18.926Z,3.60
2023-01-11T23:42:04.510Z,3.80
2023-01-11T23:44:31.973Z,4.00
2023-01-11T23:47:18.158Z,3.80
2023-01-11T23:49:45.813Z,3.90
2023-01-11T23:52:13.119Z,3.50
2023-01-11T23:54:40.541Z,3.90
2023-01-11T23:57:12.435Z,3.50
2023-01-11T23:59:41.280Z,3.30
